createdAt,value
2023-03-29T00:00:14.162Z,13.70
2023-03-29T00:03:03.873Z,12.40
2023-03-29T00:05:34.903Z,10.50
2023-03-29T00:08:03.963Z,9.50
2023-03-29T00:10:33.460Z,7.50
2023-03-29T00:13:02.170Z,10.50
2023-03-29T00:15:29.944Z,12.30
2023-03-29T00:17:58.085Z,12.80
2023-03-29T00:20:25.832Z,13.80
2023-03-29T00:22:53.350Z,12.20
2023-03-29T00:25:20.938Z,13.40
2023-03-29T00:27:48.535Z,10.00
2023-03-29T00:30:16.711Z,11.20
2023-03-29T00:32:44.587Z,10.20
2023-03-29T00:35:12.659Z,13.90
2023-03-29T00:37:41.131Z,13.90
2023-03-29T00:40:11.558Z,12.40
2023-03-29T00:42:39.274Z,12.00
2023-03-29T00:45:10.016Z,11.60
2023-03-29T00:47:47.201Z,8.70
2023-03-29T00:50:16.481Z,12.50
2023-03-29T00:52:59.668Z,11.30
2023-03-29T00:55:32.369Z,10.60
2023-03-29T00:58:01.122Z,9.60
2023-03-29T01:00:33.377Z,10.10
2023-03-29T01:03:05.121Z,10.70
2023-03-29T01:05:37.958Z,10.30
2023-03-29T01:08:11.357Z,15.30
2023-03-29T01:10:43.796Z,14.20
2023-03-29T01:13:17.605Z,13.10
2023-03-29T01:15:46.760Z,12.90
2023-03-29T01:18:14.509Z,12.60
2023-03-29T01:20:44.895Z,11.10
2023-03-29T01:23:45.698Z,13.50
2023-03-29T01:26:45.114Z,15.10
2023-03-29T01:29:20.882Z,14.40
2023-03-29T01:31:58.693Z,12.30
2023-03-29T01:34:42.157Z,11.80
2023-03-29T01:37:41.200Z,9.50
2023-03-29T01:40:10.662Z,12.80
2023-03-29T01:42:54.382Z,12.90
2023-03-29T01:45:44.494Z,8.30
2023-03-29T01:48:28.028Z,12.80
2023-03-29T01:51:07.247Z,12.20
2023-03-29T01:53:45.457Z,9.80
2023-03-29T01:56:23.541Z,10.10
2023-03-29T01:58:58.055Z,12.90
2023-03-29T02:01:30.041Z,14.20
2023-03-29T02:04:03.510Z,12.30
2023-03-29T02:06:34.056Z,12.20
2023-03-29T02:09:02.554Z,13.90
2023-03-29T02:11:30.188Z,10.90
2023-03-29T02:13:57.903Z,10.10
2023-03-29T02:16:25.445Z,10.90
2023-03-29T02:18:56.188Z,11.50
2023-03-29T02:21:32.534Z,12.80
2023-03-29T02:24:06.450Z,10.40
2023-03-29T02:26:34.088Z,12.30
2023-03-29T02:29:01.906Z,10.10
2023-03-29T02:31:55.217Z,10.90
2023-03-29T02:34:32.781Z,13.10
2023-03-29T02:37:06.590Z,9.60
2023-03-29T02:39:35.759Z,9.70
2023-03-29T02:42:05.177Z,10.20
2023-03-29T02:44:37.792Z,14.70
2023-03-29T02:47:15.958Z,9.80
2023-03-29T02:49:44.026Z,10.10
2023-03-29T02:52:16.778Z,10.70
2023-03-29T02:54:46.501Z,7.50
2023-03-29T02:57:14.196Z,8.30
2023-03-29T02:59:44.082Z,8.20
2023-03-29T03:02:12.258Z,11.30
2023-03-29T03:04:39.908Z,10.20
2023-03-29T03:07:07.486Z,13.50
2023-03-29T03:09:36.321Z,24.80
2023-03-29T03:12:04.034Z,17.70
2023-03-29T03:14:31.883Z,11.40
2023-03-29T03:17:00.657Z,13.00
2023-03-29T03:19:29.946Z,11.40
2023-03-29T03:21:57.575Z,8.60
2023-03-29T03:24:25.207Z,11.50
2023-03-29T03:26:53.184Z,12.80
2023-03-29T03:29:20.794Z,12.80
2023-03-29T03:31:48.916Z,13.30
2023-03-29T03:34:17.377Z,13.70
2023-03-29T03:36:47.153Z,13.50
2023-03-29T03:39:14.677Z,15.80
2023-03-29T03:41:42.258Z,10.50
2023-03-29T03:44:09.835Z,13.30
2023-03-29T03:46:38.097Z,26.20
2023-03-29T03:49:05.650Z,20.30
2023-03-29T03:51:33.230Z,19.10
2023-03-29T03:54:01.033Z,58.10
2023-03-29T03:56:29.817Z,48.00
2023-03-29T03:58:57.391Z,67.90
2023-03-29T04:01:27.122Z,46.20
2023-03-29T04:03:55.160Z,26.80
2023-03-29T04:06:22.728Z,66.00
2023-03-29T04:08:50.519Z,43.60
2023-03-29T04:11:18.058Z,26.90
2023-03-29T04:13:46.199Z,20.90
2023-03-29T04:16:13.770Z,35.30
2023-03-29T04:18:41.531Z,43.90
2023-03-29T04:21:09.154Z,26.80
2023-03-29T04:23:36.657Z,17.50
2023-03-29T04:26:04.566Z,13.50
2023-03-29T04:28:32.905Z,17.30
2023-03-29T04:31:01.747Z,25.70
2023-03-29T04:33:29.581Z,25.90
2023-03-29T04:35:57.498Z,35.80
2023-03-29T04:38:26.519Z,43.00
2023-03-29T04:40:55.604Z,61.60
2023-03-29T04:43:23.594Z,90.70
2023-03-29T04:45:51.358Z,80.60
2023-03-29T04:48:18.984Z,24.80
2023-03-29T04:50:47.431Z,19.10
2023-03-29T04:53:14.932Z,29.50
2023-03-29T04:55:42.626Z,28.30
2023-03-29T04:58:10.148Z,30.50
2023-03-29T05:00:37.899Z,20.10
2023-03-29T05:03:06.831Z,17.90
2023-03-29T05:05:35.359Z,23.70
2023-03-29T05:08:03.487Z,116.60
2023-03-29T05:10:31.253Z,72.90
2023-03-29T05:12:58.756Z,108.90
2023-03-29T05:15:26.515Z,113.00
2023-03-29T05:17:54.314Z,376.40
2023-03-29T05:20:22.185Z,319.50
2023-03-29T05:22:49.690Z,306.60
2023-03-29T05:25:18.793Z,158.90
2023-03-29T05:27:46.479Z,263.70
2023-03-29T05:30:18.115Z,75.30
2023-03-29T05:32:48.351Z,178.20
2023-03-29T05:35:16.226Z,46.10
2023-03-29T05:37:43.855Z,67.90
2023-03-29T05:40:14.631Z,51.80
2023-03-29T05:42:42.234Z,187.30
2023-03-29T05:45:11.429Z,72.70
2023-03-29T05:47:38.966Z,76.00
2023-03-29T05:50:09.744Z,26.60
2023-03-29T05:52:38.730Z,28.40
2023-03-29T05:55:07.356Z,44.20
2023-03-29T05:57:37.549Z,43.70
2023-03-29T06:00:25.098Z,41.30
2023-03-29T06:02:53.849Z,31.00
2023-03-29T06:05:21.527Z,48.40
2023-03-29T06:07:50.029Z,29.60
2023-03-29T06:10:19.673Z,18.00
2023-03-29T06:12:49.319Z,17.50
2023-03-29T06:15:17.657Z,25.10
2023-03-29T06:17:46.053Z,33.10
2023-03-29T06:20:14.769Z,30.60
2023-03-29T06:22:42.431Z,19.10
2023-03-29T06:25:15.177Z,17.40
2023-03-29T06:27:42.924Z,15.70
2023-03-29T06:30:12.257Z,19.10
2023-03-29T06:32:40.183Z,20.60
2023-03-29T06:35:09.117Z,20.90
2023-03-29T06:37:40.271Z,17.20
2023-03-29T06:40:09.989Z,35.60
2023-03-29T06:42:37.746Z,88.60
2023-03-29T06:45:06.411Z,45.10
2023-03-29T06:47:34.114Z,15.00
2023-03-29T06:50:01.768Z,56.00
2023-03-29T06:52:29.405Z,39.00
2023-03-29T06:54:57.343Z,16.60
2023-03-29T06:57:25.374Z,18.00
2023-03-29T06:59:54.116Z,27.10
2023-03-29T07:02:22.624Z,17.90
2023-03-29T07:04:50.454Z,94.20
2023-03-29T07:07:21.989Z,26.60
2023-03-29T07:09:53.950Z,16.60
2023-03-29T07:12:22.986Z,15.00
2023-03-29T07:14:50.625Z,18.10
2023-03-29T07:17:23.010Z,18.00
2023-03-29T07:19:51.431Z,14.50
2023-03-29T07:22:19.690Z,15.70
2023-03-29T07:24:49.327Z,12.30
2023-03-29T07:27:18.085Z,12.00
2023-03-29T07:29:46.621Z,10.70
2023-03-29T07:32:14.316Z,14.50
2023-03-29T07:34:42.414Z,22.20
2023-03-29T07:37:13.292Z,11.00
2023-03-29T07:39:44.794Z,21.70
2023-03-29T07:42:12.708Z,31.10
2023-03-29T07:44:42.440Z,21.90
2023-03-29T07:47:13.782Z,18.50
2023-03-29T07:49:42.428Z,18.20
2023-03-29T07:52:10.019Z,29.50
2023-03-29T07:54:38.537Z,19.00
2023-03-29T07:57:06.778Z,25.40
2023-03-29T07:59:34.277Z,21.40
2023-03-29T08:02:01.777Z,35.50
2023-03-29T08:04:29.627Z,18.10
2023-03-29T08:06:57.493Z,12.80
2023-03-29T08:09:25.855Z,20.70
2023-03-29T08:11:53.493Z,19.10
2023-03-29T08:14:23.715Z,18.00
2023-03-29T08:16:52.581Z,27.90
2023-03-29T08:19:20.338Z,11.10
2023-03-29T08:21:48.092Z,33.10
2023-03-29T08:24:15.980Z,18.90
2023-03-29T08:26:43.533Z,20.70
2023-03-29T08:29:11.444Z,35.50
2023-03-29T08:31:38.972Z,45.10
2023-03-29T08:34:06.988Z,20.70
2023-03-29T08:36:34.794Z,18.80
2023-03-29T08:39:03.354Z,11.40
2023-03-29T08:42:05.630Z,10.50
2023-03-29T08:45:03.711Z,11.40
2023-03-29T08:48:13.577Z,44.20
2023-03-29T08:50:50.339Z,49.20
2023-03-29T08:53:45.184Z,23.40
2023-03-29T08:56:18.554Z,20.20
2023-03-29T08:58:48.110Z,11.90
2023-03-29T09:01:16.461Z,25.80
2023-03-29T09:03:50.528Z,9.40
2023-03-29T09:06:24.264Z,10.60
2023-03-29T09:08:53.481Z,13.00
2023-03-29T09:11:30.197Z,20.30
2023-03-29T09:14:25.210Z,16.00
2023-03-29T09:17:10.022Z,30.50
2023-03-29T09:20:12.373Z,29.00
2023-03-29T09:23:13.922Z,37.20
2023-03-29T09:25:54.051Z,32.00
2023-03-29T09:28:31.214Z,25.60
2023-03-29T09:31:14.577Z,20.80
2023-03-29T09:33:49.117Z,15.10
2023-03-29T09:36:24.761Z,17.50
2023-03-29T09:38:54.455Z,16.10
2023-03-29T09:41:36.462Z,13.40
2023-03-29T09:46:55.896Z,8.10
2023-03-29T09:49:29.084Z,7.90
2023-03-29T09:52:04.829Z,14.20
2023-03-29T09:54:32.762Z,13.70
2023-03-29T09:57:01.109Z,10.20
2023-03-29T09:59:29.097Z,10.40
2023-03-29T10:02:07.769Z,13.40
2023-03-29T10:04:36.894Z,7.50
2023-03-29T10:07:07.920Z,7.40
2023-03-29T10:09:35.871Z,8.50
2023-03-29T10:12:08.049Z,8.40
2023-03-29T10:14:53.991Z,10.60
2023-03-29T10:17:26.102Z,8.60
2023-03-29T10:20:03.954Z,6.70
2023-03-29T10:22:38.384Z,11.60
2023-03-29T10:25:15.890Z,10.80
2023-03-29T10:27:47.970Z,13.00
2023-03-29T10:30:24.266Z,18.40
2023-03-29T10:32:56.828Z,8.60
2023-03-29T10:35:39.953Z,11.10
2023-03-29T10:38:14.945Z,7.30
2023-03-29T10:40:51.810Z,10.50
2023-03-29T10:43:29.777Z,7.80
2023-03-29T10:46:19.728Z,9.70
2023-03-29T10:48:50.531Z,13.00
2023-03-29T10:51:19.893Z,7.00
2023-03-29T10:53:47.586Z,10.00
2023-03-29T10:56:47.042Z,14.80
2023-03-29T10:59:32.680Z,7.20
2023-03-29T11:02:24.587Z,13.80
2023-03-29T11:05:24.945Z,10.80
2023-03-29T11:08:08.694Z,7.40
2023-03-29T11:10:46.064Z,17.50
2023-03-29T11:13:46.439Z,9.50
2023-03-29T11:16:39.425Z,8.90
2023-03-29T11:19:38.858Z,9.20
2023-03-29T11:22:26.621Z,11.60
2023-03-29T11:25:12.396Z,10.90
2023-03-29T11:28:05.104Z,8.00
2023-03-29T11:30:48.776Z,7.40
2023-03-29T11:33:19.408Z,13.70
2023-03-29T11:36:25.875Z,10.70
2023-03-29T11:38:59.346Z,9.70
2023-03-29T11:41:32.071Z,8.40
2023-03-29T11:44:09.258Z,8.50
2023-03-29T11:46:46.873Z,9.20
2023-03-29T11:49:41.962Z,9.10
2023-03-29T11:52:33.681Z,8.30
2023-03-29T11:55:19.195Z,13.00
2023-03-29T11:58:04.786Z,9.90
2023-03-29T12:00:41.073Z,14.00
2023-03-29T12:03:32.448Z,13.00
2023-03-29T12:06:25.462Z,12.60
2023-03-29T12:09:02.686Z,10.00
2023-03-29T12:11:49.070Z,11.00
2023-03-29T12:14:39.261Z,13.50
2023-03-29T12:17:15.091Z,11.40
2023-03-29T12:19:54.540Z,8.70
2023-03-29T12:22:22.612Z,9.20
2023-03-29T12:24:54.717Z,11.60
2023-03-29T12:27:27.089Z,8.00
2023-03-29T12:30:27.185Z,11.10
2023-03-29T12:33:03.975Z,10.50
2023-03-29T12:35:40.606Z,7.70
2023-03-29T12:38:31.276Z,11.30
2023-03-29T12:41:25.410Z,11.70
2023-03-29T12:43:53.626Z,9.30
2023-03-29T12:46:27.054Z,12.10
2023-03-29T12:48:58.173Z,15.00
2023-03-29T12:51:35.997Z,12.40
2023-03-29T12:54:13.918Z,32.00
2023-03-29T12:56:58.610Z,23.70
2023-03-29T12:59:47.830Z,30.90
2023-03-29T13:02:15.496Z,10.20
2023-03-29T13:04:43.646Z,15.50
2023-03-29T13:07:28.464Z,11.20
2023-03-29T13:09:57.958Z,8.40
2023-03-29T13:12:45.789Z,28.10
2023-03-29T13:15:19.472Z,9.50
2023-03-29T13:18:16.134Z,8.60
2023-03-29T13:20:46.760Z,9.50
2023-03-29T13:23:27.388Z,45.70
2023-03-29T13:26:27.284Z,15.50
2023-03-29T13:29:20.013Z,9.40
2023-03-29T13:32:01.741Z,12.70
2023-03-29T13:34:53.675Z,31.60
2023-03-29T13:37:24.567Z,152.70
2023-03-29T13:39:54.965Z,317.20
2023-03-29T13:42:40.992Z,67.20
2023-03-29T13:45:30.010Z,59.60
2023-03-29T13:48:20.566Z,21.80
2023-03-29T13:51:18.693Z,102.60
2023-03-29T13:53:53.129Z,34.10
2023-03-29T13:56:30.934Z,24.30
2023-03-29T13:59:18.831Z,12.00
2023-03-29T14:01:53.468Z,18.00
2023-03-29T14:04:25.761Z,16.20
2023-03-29T14:06:57.467Z,10.10
2023-03-29T14:09:30.321Z,9.50
2023-03-29T14:12:01.713Z,10.90
2023-03-29T14:14:32.754Z,11.80
2023-03-29T14:17:01.514Z,9.90
2023-03-29T14:19:39.036Z,13.90
2023-03-29T14:22:18.838Z,9.60
2023-03-29T14:24:58.814Z,21.50
2023-03-29T14:27:32.267Z,57.50
2023-03-29T14:30:00.708Z,74.40
2023-03-29T14:32:32.251Z,52.20
2023-03-29T14:35:01.051Z,38.80
2023-03-29T14:37:29.774Z,22.10
2023-03-29T14:39:59.500Z,24.10
2023-03-29T14:42:29.217Z,40.10
2023-03-29T14:45:04.507Z,11.30
2023-03-29T14:47:34.686Z,15.80
2023-03-29T14:50:04.708Z,14.80
2023-03-29T14:52:33.509Z,15.10
2023-03-29T14:55:04.022Z,37.40
2023-03-29T14:57:38.259Z,39.30
2023-03-29T15:00:22.715Z,15.50
2023-03-29T15:03:01.742Z,33.10
2023-03-29T15:05:38.156Z,18.20
2023-03-29T15:08:11.868Z,12.00
2023-03-29T15:10:42.949Z,20.80
2023-03-29T15:13:20.021Z,14.20
2023-03-29T15:15:52.431Z,18.50
2023-03-29T15:18:25.242Z,21.20
2023-03-29T15:20:53.010Z,23.80
2023-03-29T15:23:23.791Z,19.30
2023-03-29T15:25:58.792Z,22.60
2023-03-29T15:28:31.173Z,12.90
2023-03-29T15:31:07.962Z,16.30
2023-03-29T15:33:39.371Z,23.30
2023-03-29T15:36:20.276Z,37.00
2023-03-29T15:38:49.729Z,43.90
2023-03-29T15:41:17.272Z,27.00
2023-03-29T15:43:44.781Z,43.70
2023-03-29T15:46:13.876Z,29.60
2023-03-29T15:48:42.173Z,51.30
2023-03-29T15:51:13.396Z,21.70
2023-03-29T15:53:41.441Z,25.50
2023-03-29T15:56:13.255Z,35.20
2023-03-29T15:58:41.055Z,45.30
2023-03-29T16:01:23.665Z,199.10
2023-03-29T16:03:51.884Z,55.20
2023-03-29T16:06:22.018Z,121.30
2023-03-29T16:08:49.541Z,99.60
2023-03-29T16:11:17.372Z,35.40
2023-03-29T16:13:45.123Z,53.90
2023-03-29T16:16:12.770Z,45.60
2023-03-29T16:18:41.215Z,39.30
2023-03-29T16:21:14.322Z,49.60
2023-03-29T16:23:42.932Z,24.30
2023-03-29T16:26:12.733Z,38.30
2023-03-29T16:28:41.241Z,45.10
2023-03-29T16:31:13.273Z,51.70
2023-03-29T16:33:41.325Z,63.90
2023-03-29T16:36:10.009Z,53.80
2023-03-29T16:38:38.342Z,43.60
2023-03-29T16:41:07.110Z,21.20
2023-03-29T16:43:35.298Z,23.50
2023-03-29T16:46:03.875Z,28.90
2023-03-29T16:48:32.002Z,24.00
2023-03-29T16:50:59.717Z,17.20
2023-03-29T16:53:28.398Z,17.70
2023-03-29T16:55:57.330Z,19.20
2023-03-29T16:58:24.894Z,19.90
2023-03-29T17:00:53.551Z,30.90
2023-03-29T17:03:21.173Z,25.90
2023-03-29T17:05:50.610Z,22.00
2023-03-29T17:08:18.805Z,17.10
2023-03-29T17:10:47.254Z,14.40
2023-03-29T17:13:14.776Z,12.00
2023-03-29T17:15:42.447Z,13.90
2023-03-29T17:18:10.091Z,14.10
2023-03-29T17:20:40.875Z,15.60
2023-03-29T17:23:09.731Z,21.10
2023-03-29T17:25:37.535Z,23.30
2023-03-29T17:28:05.018Z,18.80
2023-03-29T17:30:35.022Z,17.70
2023-03-29T17:33:03.961Z,70.80
2023-03-29T17:35:32.057Z,22.40
2023-03-29T17:38:00.455Z,19.70
2023-03-29T17:40:28.149Z,36.50
2023-03-29T17:42:56.136Z,15.00
2023-03-29T17:45:24.153Z,18.40
2023-03-29T17:47:51.840Z,14.90
2023-03-29T17:50:19.623Z,19.70
2023-03-29T17:52:47.749Z,17.00
2023-03-29T17:55:15.646Z,33.70
2023-03-29T17:57:43.818Z,31.50
2023-03-29T18:00:13.892Z,18.00
2023-03-29T18:02:41.933Z,14.90
2023-03-29T18:05:12.256Z,12.70
2023-03-29T18:07:40.553Z,12.30
2023-03-29T18:10:08.465Z,14.00
2023-03-29T18:12:36.939Z,19.90
2023-03-29T18:15:08.972Z,29.20
2023-03-29T18:17:37.156Z,26.60
2023-03-29T18:20:11.090Z,22.80
2023-03-29T18:22:42.074Z,21.60
2023-03-29T18:25:11.257Z,19.80
2023-03-29T18:27:39.720Z,19.30
2023-03-29T18:30:08.766Z,23.30
2023-03-29T18:32:36.898Z,26.80
2023-03-29T18:35:07.257Z,22.00
2023-03-29T18:37:34.827Z,23.30
2023-03-29T18:40:02.414Z,19.70
2023-03-29T18:42:30.914Z,18.10
2023-03-29T18:44:58.720Z,18.80
2023-03-29T18:47:27.069Z,29.30
2023-03-29T18:49:54.755Z,17.10
2023-03-29T18:52:23.404Z,18.20
2023-03-29T18:54:51.396Z,18.70
2023-03-29T18:57:19.457Z,22.60
2023-03-29T18:59:47.362Z,14.30
2023-03-29T19:02:15.611Z,14.80
2023-03-29T19:04:43.402Z,18.20
2023-03-29T19:07:10.991Z,16.10
2023-03-29T19:09:38.849Z,15.50
2023-03-29T19:12:06.650Z,15.70
2023-03-29T19:14:34.202Z,15.60
2023-03-29T19:17:01.754Z,29.60
2023-03-29T19:19:29.490Z,18.10
2023-03-29T19:22:00.277Z,15.20
2023-03-29T19:24:28.374Z,20.20
2023-03-29T19:26:56.473Z,16.10
2023-03-29T19:29:24.469Z,18.60
2023-03-29T19:31:55.014Z,20.20
2023-03-29T19:34:24.308Z,22.20
2023-03-29T19:36:53.785Z,23.80
2023-03-29T19:39:22.296Z,20.30
2023-03-29T19:41:49.893Z,16.40
2023-03-29T19:44:17.440Z,18.70
2023-03-29T19:46:44.960Z,20.50
2023-03-29T19:49:13.665Z,19.90
2023-03-29T19:51:43.070Z,19.20
2023-03-29T19:54:13.193Z,21.50
2023-03-29T19:56:42.503Z,17.80
2023-03-29T19:59:11.010Z,14.20
2023-03-29T20:01:42.667Z,18.60
2023-03-29T20:04:11.803Z,19.50
2023-03-29T20:06:40.224Z,18.70
2023-03-29T20:09:08.767Z,16.00
2023-03-29T20:11:36.422Z,23.90
2023-03-29T20:14:04.912Z,25.20
2023-03-29T20:16:35.871Z,19.20
2023-03-29T20:19:08.153Z,17.90
2023-03-29T20:21:38.710Z,18.20
2023-03-29T20:24:08.545Z,16.20
2023-03-29T20:26:37.019Z,20.00
2023-03-29T20:29:04.619Z,19.80
2023-03-29T20:31:32.323Z,22.20
2023-03-29T20:34:00.869Z,21.90
2023-03-29T20:36:30.349Z,19.10
2023-03-29T20:38:59.228Z,19.50
2023-03-29T20:41:27.081Z,21.40
2023-03-29T20:43:58.430Z,18.20
2023-03-29T20:46:33.372Z,20.60
2023-03-29T20:49:04.371Z,20.30
2023-03-29T20:51:32.218Z,26.40
2023-03-29T20:54:04.834Z,22.00
2023-03-29T20:56:38.541Z,22.40
2023-03-29T20:59:10.397Z,19.30
2023-03-29T21:01:41.294Z,23.50
2023-03-29T21:04:10.546Z,22.00
2023-03-29T21:06:41.367Z,18.70
2023-03-29T21:09:08.883Z,18.90
2023-03-29T21:11:36.439Z,20.30
2023-03-29T21:14:04.410Z,19.00
2023-03-29T21:16:31.994Z,19.10
2023-03-29T21:18:59.691Z,20.00
2023-03-29T21:21:29.433Z,25.80
2023-03-29T21:23:57.040Z,21.30
2023-03-29T21:26:24.584Z,17.40
2023-03-29T21:28:52.141Z,21.30
2023-03-29T21:31:19.782Z,27.10
2023-03-29T21:33:47.381Z,20.40
2023-03-29T21:36:15.266Z,21.70
2023-03-29T21:38:42.821Z,20.30
2023-03-29T21:41:12.183Z,19.50
2023-03-29T21:43:40.286Z,23.30
2023-03-29T21:46:07.994Z,20.10
2023-03-29T21:48:36.020Z,18.10
2023-03-29T21:51:04.146Z,19.70
2023-03-29T21:53:31.885Z,18.80
2023-03-29T21:55:59.677Z,26.50
2023-03-29T21:58:27.293Z,20.40
2023-03-29T22:00:56.888Z,27.10
2023-03-29T22:03:25.497Z,25.00
2023-03-29T22:06:02.585Z,19.10
2023-03-29T22:08:30.788Z,25.30
2023-03-29T22:11:08.282Z,26.90
2023-03-29T22:13:36.641Z,30.50
2023-03-29T22:16:05.054Z,26.80
2023-03-29T22:18:43.754Z,32.20
2023-03-29T22:21:15.207Z,24.00
2023-03-29T22:23:45.801Z,26.60
2023-03-29T22:26:15.647Z,31.30
2023-03-29T22:28:43.468Z,27.40
2023-03-29T22:31:14.453Z,23.20
2023-03-29T22:33:42.501Z,27.30
2023-03-29T22:36:17.314Z,19.90
2023-03-29T22:38:46.731Z,27.80
2023-03-29T22:41:15.777Z,22.90
2023-03-29T22:43:43.694Z,23.90
2023-03-29T22:46:13.834Z,43.30
2023-03-29T22:48:41.639Z,30.90
2023-03-29T22:51:09.130Z,28.50
2023-03-29T22:53:36.934Z,24.50
2023-03-29T22:56:06.928Z,25.50
2023-03-29T22:58:36.208Z,20.10
2023-03-29T23:01:05.705Z,23.60
2023-03-29T23:03:34.209Z,39.10
2023-03-29T23:06:04.608Z,33.30
2023-03-29T23:08:34.211Z,27.50
2023-03-29T23:11:02.448Z,27.40
2023-03-29T23:13:30.662Z,24.50
2023-03-29T23:16:00.452Z,24.10
2023-03-29T23:18:30.580Z,23.10
2023-03-29T23:20:59.079Z,18.90
2023-03-29T23:23:28.425Z,21.30
2023-03-29T23:25:57.793Z,25.30
2023-03-29T23:28:30.109Z,23.70
2023-03-29T23:31:00.518Z,44.90
2023-03-29T23:33:33.107Z,87.10
2023-03-29T23:36:04.303Z,69.90
2023-03-29T23:38:34.136Z,32.80
2023-03-29T23:41:06.802Z,25.20
2023-03-29T23:43:40.247Z,30.70
2023-03-29T23:46:13.266Z,23.30
2023-03-29T23:48:45.690Z,39.70
2023-03-29T23:51:13.560Z,31.30
2023-03-29T23:53:41.445Z,29.60
2023-03-29T23:56:09.468Z,25.00
2023-03-29T23:58:38.004Z,27.50
